Time;durP1;ratioP1;P1;durP2;ratioP2;P2;SDS_P1;SDS_P2;PMS_P1;PMS_P2;Temp;Humidity;BMP_temperature;BMP_pressure;BME280_temperature;BME280_humidity;BME280_pressure;Samples;Min_cycle;Max_cycle;Signal;HPM_P1;HPM_P2
2021/03/15 00:00:53;;;;;;;7.37;2.23;;;;;;;;;;5109606;28;20247;-72
2021/03/15 00:03:23;;;;;;;7.13;2.07;;;;;;;;;;5111378;28;20198;-72
2021/03/15 00:06:00;;;;;;;8.20;1.87;;;;;;;;;;5119079;28;20235;-73
2021/03/15 00:08:27;;;;;;;5.67;1.80;;;;;;;;;;5119037;28;20243;-73
2021/03/15 00:10:55;;;;;;;2.93;1.83;;;;;;;;;;5118715;28;20668;-72
2021/03/15 00:13:22;;;;;;;4.13;1.90;;;;;;;;;;5118657;28;20288;-72
2021/03/15 00:15:50;;;;;;;5.03;1.90;;;;;;;;;;5118195;28;20235;-72
2021/03/15 00:18:17;;;;;;;6.33;1.97;;;;;;;;;;5118758;28;20292;-72
2021/03/15 00:20:46;;;;;;;12.33;3.23;;;;;;;;;;5118847;28;20201;-72
2021/03/15 00:23:13;;;;;;;5.53;2.33;;;;;;;;;;5118380;28;20263;-72
2021/03/15 00:25:40;;;;;;;7.03;2.10;;;;;;;;;;5118512;28;20324;-72
2021/03/15 00:28:07;;;;;;;2.97;1.80;;;;;;;;;;5118127;27;20300;-72
2021/03/15 00:30:34;;;;;;;14.80;2.87;;;;;;;;;;5118353;28;20236;-71
2021/03/15 00:33:01;;;;;;;5.37;1.80;;;;;;;;;;5118539;28;20296;-73
2021/03/15 00:35:28;;;;;;;9.83;2.80;;;;;;;;;;5107784;28;20221;-73
2021/03/15 00:37:57;;;;;;;6.83;1.80;;;;;;;;;;5098009;28;20618;-73
2021/03/15 00:40:24;;;;;;;6.93;1.80;;;;;;;;;;5098163;28;20225;-73
2021/03/15 00:42:52;;;;;;;5.07;1.77;;;;;;;;;;5097675;28;20684;-73
2021/03/15 00:45:20;;;;;;;3.73;1.80;;;;;;;;;;5098962;28;20247;-73
2021/03/15 00:47:47;;;;;;;5.80;1.50;;;;;;;;;;5099669;28;20205;-73
2021/03/15 00:50:18;;;;;;;6.57;2.43;;;;;;;;;;5098096;28;20245;-73
2021/03/15 00:52:45;;;;;;;5.20;1.87;;;;;;;;;;5098319;28;20308;-73
2021/03/15 00:55:13;;;;;;;6.53;1.67;;;;;;;;;;5097889;28;20229;-73
2021/03/15 00:57:40;;;;;;;7.73;1.83;;;;;;;;;;5098055;28;20205;-73
2021/03/15 01:00:08;;;;;;;2.77;1.30;;;;;;;;;;5109518;28;20668;-73
2021/03/15 01:02:35;;;;;;;2.67;1.17;;;;;;;;;;5107574;28;20604;-73
2021/03/15 01:05:03;;;;;;;3.43;1.53;;;;;;;;;;5122536;28;20225;-73
2021/03/15 01:07:30;;;;;;;6.60;1.90;;;;;;;;;;5122099;28;20240;-73
2021/03/15 01:09:57;;;;;;;4.87;1.60;;;;;;;;;;5122441;28;20211;-73
2021/03/15 01:12:25;;;;;;;7.53;2.23;;;;;;;;;;5122215;27;20207;-73
2021/03/15 01:14:52;;;;;;;6.27;1.57;;;;;;;;;;5122056;28;20229;-73
2021/03/15 01:17:19;;;;;;;6.77;1.73;;;;;;;;;;5121999;28;20208;-73
2021/03/15 01:19:46;;;;;;;2.97;1.37;;;;;;;;;;5122159;28;20216;-73
2021/03/15 01:22:13;;;;;;;8.57;1.57;;;;;;;;;;5122166;28;20286;-73
2021/03/15 01:24:40;;;;;;;5.43;1.53;;;;;;;;;;5121754;28;20693;-73
2021/03/15 01:27:07;;;;;;;8.97;1.63;;;;;;;;;;5121692;28;20299;-73
2021/03/15 01:29:35;;;;;;;5.37;1.33;;;;;;;;;;5121827;28;20739;-73
2021/03/15 01:32:02;;;;;;;2.63;1.13;;;;;;;;;;5121802;28;20211;-73
2021/03/15 01:34:30;;;;;;;6.87;1.73;;;;;;;;;;5119797;28;20224;-73
2021/03/15 01:37:03;;;;;;;6.53;1.53;;;;;;;;;;5101495;28;20205;-73
2021/03/15 01:39:31;;;;;;;6.00;1.77;;;;;;;;;;5101262;28;20201;-73
2021/03/15 01:41:59;;;;;;;6.90;1.30;;;;;;;;;;5101111;28;20545;-73
2021/03/15 01:44:26;;;;;;;4.10;1.30;;;;;;;;;;5101782;28;20229;-73
2021/03/15 01:46:54;;;;;;;6.27;1.70;;;;;;;;;;5104976;28;20293;-74
2021/03/15 01:49:21;;;;;;;4.40;1.50;;;;;;;;;;5100894;28;20209;-74
2021/03/15 01:51:49;;;;;;;6.40;1.57;;;;;;;;;;5101204;28;20255;-73
2021/03/15 01:54:17;;;;;;;6.03;1.90;;;;;;;;;;5100990;28;20264;-73
2021/03/15 01:56:45;;;;;;;4.57;1.43;;;;;;;;;;5100754;28;20210;-73
2021/03/15 01:59:12;;;;;;;4.70;1.80;;;;;;;;;;5104368;28;20244;-73
2021/03/15 02:01:40;;;;;;;5.77;1.70;;;;;;;;;;5108878;28;20288;-73
2021/03/15 02:04:08;;;;;;;4.73;1.47;;;;;;;;;;5120200;28;20197;-73
2021/03/15 02:06:35;;;;;;;4.63;1.50;;;;;;;;;;5121325;28;20292;-73
2021/03/15 02:09:02;;;;;;;5.67;1.33;;;;;;;;;;5121155;28;20281;-73
2021/03/15 02:11:35;;;;;;;8.23;1.23;;;;;;;;;;5121031;28;20668;-73
2021/03/15 02:14:06;;;;;;;3.10;1.30;;;;;;;;;;5120158;28;20243;-73
2021/03/15 02:16:37;;;;;;;9.80;2.40;;;;;;;;;;5120463;28;20240;-73
2021/03/15 02:19:36;;;;;;;6.27;2.17;;;;;;;;;;5120920;28;20564;-73
2021/03/15 02:22:24;;;;;;;5.20;2.03;;;;;;;;;;5120958;28;20204;-73
2021/03/15 02:25:02;;;;;;;5.43;2.60;;;;;;;;;;5120580;28;20259;-73
2021/03/15 02:27:40;;;;;;;6.60;2.50;;;;;;;;;;5120665;28;20291;-72
2021/03/15 02:30:28;;;;;;;7.87;2.77;;;;;;;;;;5121791;28;20238;-73
2021/03/15 02:33:10;;;;;;;8.30;2.57;;;;;;;;;;5121223;28;20652;-74
2021/03/15 02:35:39;;;;;;;5.17;2.63;;;;;;;;;;5096159;28;20299;-72
2021/03/15 02:38:08;;;;;;;4.60;2.67;;;;;;;;;;5100204;28;20237;-72
2021/03/15 02:40:36;;;;;;;6.97;2.73;;;;;;;;;;5100289;28;20205;-72
2021/03/15 02:43:05;;;;;;;4.97;2.13;;;;;;;;;;5099808;28;20684;-72
2021/03/15 02:45:32;;;;;;;4.20;2.50;;;;;;;;;;5102892;28;20229;-72
2021/03/15 02:48:01;;;;;;;6.53;2.67;;;;;;;;;;5099954;28;20542;-72
2021/03/15 02:50:28;;;;;;;5.07;2.43;;;;;;;;;;5100096;28;20206;-72
2021/03/15 02:52:57;;;;;;;5.43;2.50;;;;;;;;;;5106819;28;20707;-72
2021/03/15 02:55:26;;;;;;;9.13;2.87;;;;;;;;;;5119860;28;20229;-72
2021/03/15 02:57:55;;;;;;;6.40;2.73;;;;;;;;;;5119958;28;20211;-72
2021/03/15 03:00:23;;;;;;;6.93;2.13;;;;;;;;;;5119051;28;20235;-72
2021/03/15 03:02:51;;;;;;;11.30;2.17;;;;;;;;;;5108182;28;20196;-72
2021/03/15 03:05:19;;;;;;;8.80;1.93;;;;;;;;;;5119785;28;20304;-72
2021/03/15 03:07:49;;;;;;;8.97;2.07;;;;;;;;;;5119924;28;20706;-72
2021/03/15 03:10:19;;;;;;;8.57;2.43;;;;;;;;;;5119775;28;20710;-72
2021/03/15 03:12:47;;;;;;;7.57;2.10;;;;;;;;;;5119776;28;20664;-72
2021/03/15 03:15:15;;;;;;;9.13;1.90;;;;;;;;;;5119454;28;20669;-72
2021/03/15 03:17:43;;;;;;;5.37;1.43;;;;;;;;;;5119937;28;20744;-72
2021/03/15 03:20:13;;;;;;;7.83;1.67;;;;;;;;;;5119674;28;20224;-72
2021/03/15 03:22:41;;;;;;;10.47;1.70;;;;;;;;;;5119922;28;20243;-72
2021/03/15 03:25:10;;;;;;;6.77;1.77;;;;;;;;;;5119592;28;20263;-72
2021/03/15 03:27:39;;;;;;;9.33;1.73;;;;;;;;;;5119246;28;20324;-72
2021/03/15 03:30:07;;;;;;;6.63;1.40;;;;;;;;;;5119508;28;20205;-72
2021/03/15 03:32:36;;;;;;;4.20;1.10;;;;;;;;;;5119509;28;20292;-72
2021/03/15 03:35:03;;;;;;;8.73;1.50;;;;;;;;;;5111917;28;20257;-72
2021/03/15 03:37:30;;;;;;;5.10;1.47;;;;;;;;;;5098819;28;20724;-72
2021/03/15 03:39:57;;;;;;;1.80;1.20;;;;;;;;;;5098883;28;20262;-73
2021/03/15 03:42:25;;;;;;;6.27;1.20;;;;;;;;;;5098969;28;20216;-73
2021/03/15 03:44:53;;;;;;;4.57;1.00;;;;;;;;;;5098678;28;20657;-72
2021/03/15 03:47:20;;;;;;;3.33;1.17;;;;;;;;;;5101839;28;20206;-72
2021/03/15 03:49:47;;;;;;;4.43;1.33;;;;;;;;;;5098914;28;20212;-72
2021/03/15 03:52:15;;;;;;;4.73;1.20;;;;;;;;;;5098774;28;20288;-72
2021/03/15 03:54:44;;;;;;;3.40;1.43;;;;;;;;;;5098545;28;20304;-72
2021/03/15 03:57:12;;;;;;;6.07;1.30;;;;;;;;;;5098699;28;20334;-73
2021/03/15 03:59:41;;;;;;;4.03;1.37;;;;;;;;;;5106496;28;20236;-72
2021/03/15 04:02:11;;;;;;;3.57;1.20;;;;;;;;;;5104885;28;20655;-72
2021/03/15 04:04:41;;;;;;;3.53;1.20;;;;;;;;;;5108876;27;20221;-72
2021/03/15 04:07:08;;;;;;;3.70;1.00;;;;;;;;;;5098528;28;20256;-71
2021/03/15 04:09:36;;;;;;;2.73;1.43;;;;;;;;;;5098556;28;20206;-72
2021/03/15 04:12:06;;;;;;;6.00;1.30;;;;;;;;;;5098367;28;20342;-73
2021/03/15 04:14:36;;;;;;;5.07;1.60;;;;;;;;;;5097798;28;20226;-72
2021/03/15 04:17:04;;;;;;;3.50;1.07;;;;;;;;;;5098083;28;20217;-73
2021/03/15 04:19:35;;;;;;;5.20;1.53;;;;;;;;;;5098185;28;20213;-72
2021/03/15 04:22:04;;;;;;;3.37;1.07;;;;;;;;;;5098113;28;20245;-72
2021/03/15 04:24:35;;;;;;;7.37;1.53;;;;;;;;;;5098518;28;20217;-72
2021/03/15 04:27:02;;;;;;;3.90;1.20;;;;;;;;;;5105173;28;20295;-72
2021/03/15 04:29:30;;;;;;;2.97;1.03;;;;;;;;;;5118143;28;20268;-72
2021/03/15 04:31:57;;;;;;;5.70;1.40;;;;;;;;;;5118308;28;20258;-72
2021/03/15 04:34:25;;;;;;;4.47;1.50;;;;;;;;;;5117488;28;20303;-72
2021/03/15 04:36:53;;;;;;;2.23;1.27;;;;;;;;;;5097777;28;20248;-72
2021/03/15 04:39:25;;;;;;;4.33;1.03;;;;;;;;;;5098065;28;20212;-72
2021/03/15 04:41:52;;;;;;;4.60;1.60;;;;;;;;;;5098006;28;20240;-72
2021/03/15 04:44:19;;;;;;;3.43;1.10;;;;;;;;;;5097659;28;20274;-73
2021/03/15 04:46:46;;;;;;;6.23;1.43;;;;;;;;;;5101982;28;20740;-73
2021/03/15 04:49:14;;;;;;;7.90;1.50;;;;;;;;;;5097787;28;20244;-74
2021/03/15 04:51:41;;;;;;;8.17;1.13;;;;;;;;;;5098086;28;20668;-72
2021/03/15 04:54:10;;;;;;;4.73;1.50;;;;;;;;;;5097555;28;20680;-72
2021/03/15 04:56:37;;;;;;;4.37;1.23;;;;;;;;;;5097793;28;20268;-73
2021/03/15 04:59:05;;;;;;;4.33;0.97;;;;;;;;;;5100550;28;20284;-73
2021/03/15 05:01:34;;;;;;;6.60;1.77;;;;;;;;;;5108176;28;20252;-73
2021/03/15 05:04:04;;;;;;;4.17;1.67;;;;;;;;;;5116298;28;20200;-73
2021/03/15 05:06:32;;;;;;;2.23;1.30;;;;;;;;;;5118453;28;20308;-73
2021/03/15 05:08:59;;;;;;;2.83;1.27;;;;;;;;;;5118182;28;20284;-72
2021/03/15 05:11:30;;;;;;;6.37;1.90;;;;;;;;;;5117916;28;20263;-73
2021/03/15 05:13:59;;;;;;;10.60;1.70;;;;;;;;;;5118306;28;20234;-72
2021/03/15 05:16:27;;;;;;;5.80;1.43;;;;;;;;;;5117736;28;20288;-72
2021/03/15 05:18:54;;;;;;;7.00;1.47;;;;;;;;;;5118058;28;20687;-72
2021/03/15 05:21:22;;;;;;;2.33;1.53;;;;;;;;;;5117902;28;20300;-72
2021/03/15 05:23:50;;;;;;;6.60;1.70;;;;;;;;;;5117852;28;20638;-73
2021/03/15 05:26:17;;;;;;;6.73;1.57;;;;;;;;;;5117594;28;20275;-73
2021/03/15 05:28:45;;;;;;;5.30;1.60;;;;;;;;;;5117761;28;20243;-72
2021/03/15 05:31:12;;;;;;;4.83;1.50;;;;;;;;;;5117619;28;20296;-73
2021/03/15 05:33:39;;;;;;;7.73;1.70;;;;;;;;;;5118361;28;20205;-73
2021/03/15 05:36:08;;;;;;;4.93;1.43;;;;;;;;;;5101802;28;20332;-72
2021/03/15 05:38:35;;;;;;;5.50;2.30;;;;;;;;;;5097384;28;20620;-72
2021/03/15 05:41:02;;;;;;;6.13;1.67;;;;;;;;;;5097430;28;20241;-72
2021/03/15 05:43:34;;;;;;;6.17;1.60;;;;;;;;;;5097360;28;20300;-72
2021/03/15 05:46:22;;;;;;;3.43;1.50;;;;;;;;;;5100162;28;20654;-72
2021/03/15 05:49:07;;;;;;;4.77;1.40;;;;;;;;;;5095563;28;20206;-72
2021/03/15 05:52:03;;;;;;;7.07;2.67;;;;;;;;;;5101026;28;20675;-72
2021/03/15 05:54:57;;;;;;;4.67;1.40;;;;;;;;;;5107842;28;20727;-73
2021/03/15 05:57:34;;;;;;;5.63;2.50;;;;;;;;;;5113399;28;20212;-72
2021/03/15 06:00:06;;;;;;;4.63;1.53;;;;;;;;;;5113657;28;20204;-72
2021/03/15 06:02:42;;;;;;;4.03;1.67;;;;;;;;;;5112320;28;20223;-72
2021/03/15 06:05:19;;;;;;;8.17;2.60;;;;;;;;;;5110798;28;20273;-73
2021/03/15 06:07:47;;;;;;;7.03;2.23;;;;;;;;;;5110604;28;20228;-73
2021/03/15 06:10:38;;;;;;;4.87;1.80;;;;;;;;;;5112249;28;20200;-72
2021/03/15 06:13:06;;;;;;;6.90;2.17;;;;;;;;;;5110869;28;20704;-73
2021/03/15 06:15:35;;;;;;;5.73;2.07;;;;;;;;;;5112047;28;20248;-72
2021/03/15 06:18:03;;;;;;;4.43;1.87;;;;;;;;;;5110626;28;20232;-73
2021/03/15 06:20:33;;;;;;;5.80;1.80;;;;;;;;;;5111943;28;20197;-72
2021/03/15 06:23:01;;;;;;;6.60;1.80;;;;;;;;;;5110779;28;20235;-72
2021/03/15 06:25:28;;;;;;;6.03;2.50;;;;;;;;;;5112796;28;20224;-73
2021/03/15 06:27:56;;;;;;;5.57;2.10;;;;;;;;;;5109759;28;20271;-72
2021/03/15 06:30:23;;;;;;;6.37;2.30;;;;;;;;;;5112469;28;20250;-72
2021/03/15 06:32:51;;;;;;;6.03;2.60;;;;;;;;;;5111279;28;20537;-73
2021/03/15 06:35:19;;;;;;;5.50;3.07;;;;;;;;;;5110876;28;20232;-73
2021/03/15 06:37:47;;;;;;;5.87;2.30;;;;;;;;;;5110715;28;20256;-72
2021/03/15 06:40:15;;;;;;;7.57;4.73;;;;;;;;;;5110802;28;20208;-72
2021/03/15 06:42:42;;;;;;;9.30;4.63;;;;;;;;;;5110408;28;20197;-72
2021/03/15 06:45:11;;;;;;;17.80;8.07;;;;;;;;;;5109796;28;20221;-73
2021/03/15 06:47:39;;;;;;;10.80;4.23;;;;;;;;;;5111606;28;20240;-73
2021/03/15 06:50:07;;;;;;;9.67;6.03;;;;;;;;;;5110291;28;20225;-72
2021/03/15 06:52:49;;;;;;;5.53;2.90;;;;;;;;;;5111220;28;20279;-72
2021/03/15 06:55:18;;;;;;;9.03;2.20;;;;;;;;;;5110126;28;20228;-72
2021/03/15 06:57:45;;;;;;;6.80;2.10;;;;;;;;;;5109872;28;20251;-72
2021/03/15 07:00:12;;;;;;;5.17;1.50;;;;;;;;;;5110115;28;20304;-72
2021/03/15 07:02:41;;;;;;;3.63;1.47;;;;;;;;;;5110579;28;20219;-72
2021/03/15 07:05:09;;;;;;;2.77;2.57;;;;;;;;;;5108823;28;20275;-72
2021/03/15 07:07:37;;;;;;;3.77;1.90;;;;;;;;;;5110619;28;20665;-72
2021/03/15 07:10:14;;;;;;;4.10;1.30;;;;;;;;;;5108889;28;20617;-73
2021/03/15 07:12:42;;;;;;;4.73;1.60;;;;;;;;;;5108914;28;20232;-73
2021/03/15 07:15:10;;;;;;;4.90;1.80;;;;;;;;;;5110134;28;20264;-75
2021/03/15 07:17:37;;;;;;;3.00;1.30;;;;;;;;;;5112426;28;20236;-73
2021/03/15 07:20:06;;;;;;;4.93;1.30;;;;;;;;;;5119456;28;20261;-73
2021/03/15 07:22:34;;;;;;;4.10;1.03;;;;;;;;;;5119567;28;20296;-73
2021/03/15 07:25:05;;;;;;;1.63;0.90;;;;;;;;;;5119749;28;20225;-73
2021/03/15 07:27:32;;;;;;;1.83;0.77;;;;;;;;;;5119211;28;20739;-74
2021/03/15 07:30:23;;;;;;;1.03;0.80;;;;;;;;;;5119331;28;20292;-74
2021/03/15 07:32:50;;;;;;;2.53;1.00;;;;;;;;;;5119111;28;20274;-74
2021/03/15 07:35:22;;;;;;;2.40;1.00;;;;;;;;;;5110277;28;20225;-72
2021/03/15 07:37:49;;;;;;;3.00;1.03;;;;;;;;;;5099062;28;20268;-73
2021/03/15 07:40:27;;;;;;;3.80;1.10;;;;;;;;;;5098821;28;20611;-74
2021/03/15 07:42:58;;;;;;;2.73;1.30;;;;;;;;;;5098607;28;20727;-74
2021/03/15 07:45:33;;;;;;;3.87;0.97;;;;;;;;;;5100736;28;20249;-74
2021/03/15 07:48:13;;;;;;;0.60;0.60;;;;;;;;;;5107992;27;20291;-74
2021/03/15 07:50:41;;;;;;;0.67;0.67;;;;;;;;;;5113281;28;20257;-75
2021/03/15 07:53:08;;;;;;;1.37;1.07;;;;;;;;;;5101869;28;20216;-74
2021/03/15 07:55:36;;;;;;;2.23;1.10;;;;;;;;;;5098959;28;20796;-74
2021/03/15 07:58:25;;;;;;;5.70;1.00;;;;;;;;;;5098402;28;20206;-74
2021/03/15 08:00:54;;;;;;;1.37;0.80;;;;;;;;;;5116002;28;20236;-73
2021/03/15 08:03:22;;;;;;;1.40;1.00;;;;;;;;;;5105531;28;20202;-73
2021/03/15 08:05:50;;;;;;;2.13;0.80;;;;;;;;;;5105208;28;20213;-73
2021/03/15 08:08:17;;;;;;;2.60;0.90;;;;;;;;;;5101173;28;20237;-72
2021/03/15 08:10:45;;;;;;;2.27;1.10;;;;;;;;;;5097684;28;20610;-73
2021/03/15 08:13:13;;;;;;;0.60;0.60;;;;;;;;;;5097896;28;20318;-73
2021/03/15 08:15:40;;;;;;;1.53;0.93;;;;;;;;;;5097897;28;20677;-73
2021/03/15 08:18:09;;;;;;;0.70;0.70;;;;;;;;;;5098060;28;20659;-74
2021/03/15 08:20:41;;;;;;;2.47;1.10;;;;;;;;;;5098267;28;20205;-74
2021/03/15 08:23:09;;;;;;;4.03;1.40;;;;;;;;;;5097768;28;20232;-74
2021/03/15 08:25:37;;;;;;;1.57;1.30;;;;;;;;;;5097848;28;20584;-74
2021/03/15 08:28:04;;;;;;;1.90;1.43;;;;;;;;;;5097446;28;20229;-74
2021/03/15 08:30:35;;;;;;;2.30;1.20;;;;;;;;;;5097832;28;20209;-74
2021/03/15 08:33:02;;;;;;;2.53;1.00;;;;;;;;;;5105467;28;20236;-75
2021/03/15 08:35:31;;;;;;;1.70;0.90;;;;;;;;;;5117428;28;20254;-72
2021/03/15 08:37:59;;;;;;;1.47;1.07;;;;;;;;;;5097918;28;20258;-73
2021/03/15 08:40:45;;;;;;;2.23;0.83;;;;;;;;;;5098014;28;20597;-72
2021/03/15 08:43:29;;;;;;;2.07;0.90;;;;;;;;;;5100668;28;20205;-73
2021/03/15 08:45:56;;;;;;;2.70;1.30;;;;;;;;;;5104089;28;20231;-73
2021/03/15 08:48:38;;;;;;;0.90;0.90;;;;;;;;;;5111717;28;20308;-74
2021/03/15 08:51:07;;;;;;;1.77;1.00;;;;;;;;;;5117542;28;20583;-75
2021/03/15 08:53:51;;;;;;;2.70;1.30;;;;;;;;;;5117830;28;20213;-74
2021/03/15 08:56:44;;;;;;;3.10;1.30;;;;;;;;;;5117784;28;20629;-74
2021/03/15 08:59:13;;;;;;;2.40;1.30;;;;;;;;;;5100498;28;20703;-74
2021/03/15 09:01:50;;;;;;;1.53;1.43;;;;;;;;;;5097459;28;20237;-74
2021/03/15 09:04:31;;;;;;;2.73;1.20;;;;;;;;;;5097245;28;20708;-74
2021/03/15 09:07:00;;;;;;;1.60;1.40;;;;;;;;;;5097187;28;20262;-74
2021/03/15 09:09:28;;;;;;;1.00;0.90;;;;;;;;;;5097695;28;20201;-74
2021/03/15 09:11:55;;;;;;;1.47;0.90;;;;;;;;;;5097092;28;20619;-74
2021/03/15 09:14:30;;;;;;;1.43;0.63;;;;;;;;;;5097621;28;20233;-74
2021/03/15 09:16:58;;;;;;;1.30;1.20;;;;;;;;;;5097160;28;20316;-74
2021/03/15 09:19:26;;;;;;;2.23;1.97;;;;;;;;;;5097490;28;20206;-74
2021/03/15 09:21:54;;;;;;;1.60;0.70;;;;;;;;;;5097533;28;20292;-74
2021/03/15 09:24:36;;;;;;;3.53;0.80;;;;;;;;;;5101543;28;20267;-74
2021/03/15 09:27:04;;;;;;;3.37;0.60;;;;;;;;;;5101094;28;20554;-74
2021/03/15 09:29:31;;;;;;;1.20;0.70;;;;;;;;;;5108321;27;20281;-74
2021/03/15 09:31:58;;;;;;;0.90;0.90;;;;;;;;;;5133686;27;20228;-74
2021/03/15 09:34:26;;;;;;;0.50;0.50;;;;;;;;;;5131351;27;20213;-74
2021/03/15 09:36:54;;;;;;;0.40;0.40;;;;;;;;;;5134386;27;20224;-73
2021/03/15 09:39:22;;;;;;;2.27;0.47;;;;;;;;;;5130924;27;20287;-73
2021/03/15 09:41:50;;;;;;;0.77;0.67;;;;;;;;;;5122593;27;20224;-73
2021/03/15 09:44:22;;;;;;;1.47;0.60;;;;;;;;;;5121828;27;20228;-73
2021/03/15 09:46:49;;;;;;;1.80;0.53;;;;;;;;;;5134944;27;20197;-74
2021/03/15 09:49:31;;;;;;;2.20;0.77;;;;;;;;;;5137333;27;20200;-73
2021/03/15 09:52:08;;;;;;;0.60;0.60;;;;;;;;;;5114199;27;20196;-74
2021/03/15 09:54:39;;;;;;;0.40;0.40;;;;;;;;;;5130925;27;20683;-74
2021/03/15 09:57:07;;;;;;;1.40;0.70;;;;;;;;;;5118837;28;20248;-74
2021/03/15 09:59:34;;;;;;;0.40;0.40;;;;;;;;;;5101224;28;20727;-73
2021/03/15 10:02:02;;;;;;;1.07;0.57;;;;;;;;;;5100581;28;20210;-73
2021/03/15 10:04:36;;;;;;;0.60;0.60;;;;;;;;;;5100528;28;20225;-74
2021/03/15 10:07:05;;;;;;;2.13;0.50;;;;;;;;;;5100742;28;20213;-74
2021/03/15 10:09:32;;;;;;;2.00;0.50;;;;;;;;;;5101036;28;20645;-74
2021/03/15 10:12:00;;;;;;;0.80;0.50;;;;;;;;;;5100730;28;20202;-73
2021/03/15 10:14:28;;;;;;;1.77;0.50;;;;;;;;;;5100555;28;20316;-74
2021/03/15 10:16:57;;;;;;;0.63;0.63;;;;;;;;;;5099756;28;20248;-73
2021/03/15 10:19:27;;;;;;;3.33;0.60;;;;;;;;;;5100155;28;20672;-73
2021/03/15 10:21:55;;;;;;;0.67;0.37;;;;;;;;;;5100296;28;20212;-74
2021/03/15 10:24:32;;;;;;;0.70;0.70;;;;;;;;;;5100018;28;20280;-75
2021/03/15 10:27:00;;;;;;;0.90;0.60;;;;;;;;;;5099768;28;20228;-72
2021/03/15 10:29:28;;;;;;;0.80;0.60;;;;;;;;;;5099925;28;20337;-72
2021/03/15 10:31:59;;;;;;;0.50;0.50;;;;;;;;;;5099556;28;20736;-73
2021/03/15 10:34:27;;;;;;;1.03;0.80;;;;;;;;;;5114334;28;20629;-73
2021/03/15 10:36:55;;;;;;;0.80;0.80;;;;;;;;;;5100032;28;20229;-73
2021/03/15 10:39:23;;;;;;;0.80;0.80;;;;;;;;;;5100006;28;20205;-73
2021/03/15 10:41:51;;;;;;;0.87;0.70;;;;;;;;;;5099613;28;20580;-73
2021/03/15 10:44:20;;;;;;;1.23;1.13;;;;;;;;;;5099577;28;20626;-73
2021/03/15 10:46:48;;;;;;;0.80;0.80;;;;;;;;;;5104674;28;20610;-73
2021/03/15 10:49:20;;;;;;;1.20;1.10;;;;;;;;;;5114505;28;20205;-73
2021/03/15 10:51:50;;;;;;;1.47;0.87;;;;;;;;;;5120060;28;20197;-73
2021/03/15 10:54:30;;;;;;;1.73;1.13;;;;;;;;;;5120020;28;20233;-72
2021/03/15 10:57:24;;;;;;;1.10;1.10;;;;;;;;;;5120305;28;20267;-73
2021/03/15 10:59:51;;;;;;;2.70;1.27;;;;;;;;;;5083707;28;20212;-74
2021/03/15 11:02:19;;;;;;;4.40;1.10;;;;;;;;;;5119968;28;20212;-74
2021/03/15 11:04:52;;;;;;;1.17;1.00;;;;;;;;;;5119573;28;20225;-74
2021/03/15 11:07:20;;;;;;;2.13;1.00;;;;;;;;;;5119767;28;20213;-74
2021/03/15 11:10:01;;;;;;;6.33;1.50;;;;;;;;;;5119803;28;20212;-74
2021/03/15 11:12:37;;;;;;;5.57;2.00;;;;;;;;;;5119681;28;20228;-74
2021/03/15 11:15:05;;;;;;;7.33;2.20;;;;;;;;;;5119389;28;20257;-74
2021/03/15 11:17:32;;;;;;;3.13;2.33;;;;;;;;;;5119437;27;20264;-73
2021/03/15 11:20:03;;;;;;;2.10;1.60;;;;;;;;;;5119534;28;20211;-73
2021/03/15 11:22:43;;;;;;;4.70;2.20;;;;;;;;;;5119294;28;20247;-74
2021/03/15 11:25:11;;;;;;;2.40;1.47;;;;;;;;;;5119350;28;20229;-74
2021/03/15 11:27:38;;;;;;;1.63;1.53;;;;;;;;;;5119244;28;20260;-74
2021/03/15 11:30:05;;;;;;;4.30;1.97;;;;;;;;;;5119059;28;20288;-73
2021/03/15 11:32:32;;;;;;;4.97;1.90;;;;;;;;;;5119429;28;20242;-74
2021/03/15 11:35:00;;;;;;;5.07;2.00;;;;;;;;;;5114828;28;20221;-73
2021/03/15 11:37:28;;;;;;;3.73;1.90;;;;;;;;;;5104138;28;20259;-74
2021/03/15 11:39:56;;;;;;;1.90;1.73;;;;;;;;;;5108745;28;20206;-73
2021/03/15 11:42:24;;;;;;;2.60;2.00;;;;;;;;;;5110215;28;20250;-71
2021/03/15 11:45:01;;;;;;;2.10;1.90;;;;;;;;;;5108680;28;20645;-72
2021/03/15 11:47:28;;;;;;;2.97;2.23;;;;;;;;;;5111396;28;20217;-72
2021/03/15 11:49:56;;;;;;;3.87;2.50;;;;;;;;;;5098672;28;20201;-72
2021/03/15 11:52:25;;;;;;;2.87;1.90;;;;;;;;;;5098653;28;20240;-72
2021/03/15 11:55:00;;;;;;;2.57;2.37;;;;;;;;;;5098760;28;20259;-72
2021/03/15 11:57:27;;;;;;;4.83;3.00;;;;;;;;;;5098360;28;20229;-73
2021/03/15 11:59:54;;;;;;;4.43;2.73;;;;;;;;;;5104256;28;20233;-72
2021/03/15 12:02:22;;;;;;;3.43;2.50;;;;;;;;;;5098394;28;20204;-72
2021/03/15 12:04:49;;;;;;;6.80;2.90;;;;;;;;;;5097949;28;20320;-72
2021/03/15 12:07:16;;;;;;;4.03;2.63;;;;;;;;;;5098089;28;20251;-72
2021/03/15 12:09:44;;;;;;;5.43;2.70;;;;;;;;;;5098133;28;20205;-71
2021/03/15 12:12:12;;;;;;;3.50;2.63;;;;;;;;;;5098235;28;20237;-70
2021/03/15 12:14:39;;;;;;;5.67;2.90;;;;;;;;;;5098032;28;20236;-71
2021/03/15 12:17:06;;;;;;;5.37;3.30;;;;;;;;;;5101804;28;20260;-71
2021/03/15 12:19:33;;;;;;;4.93;3.30;;;;;;;;;;5109535;28;20198;-71
2021/03/15 12:22:01;;;;;;;6.80;3.20;;;;;;;;;;5109609;28;20208;-71
2021/03/15 12:24:28;;;;;;;8.43;3.40;;;;;;;;;;5112511;28;20255;-72
2021/03/15 12:26:55;;;;;;;4.10;2.90;;;;;;;;;;5118261;28;20275;-70
2021/03/15 12:29:23;;;;;;;5.20;2.87;;;;;;;;;;5105978;28;20269;-71
2021/03/15 12:31:51;;;;;;;7.03;3.50;;;;;;;;;;5100240;28;20233;-72
2021/03/15 12:34:18;;;;;;;8.23;3.33;;;;;;;;;;5111040;28;20248;-71
2021/03/15 12:36:45;;;;;;;5.30;3.17;;;;;;;;;;5109249;28;20255;-72
2021/03/15 12:39:12;;;;;;;8.00;3.80;;;;;;;;;;5101101;28;20210;-72
2021/03/15 12:41:39;;;;;;;8.43;4.30;;;;;;;;;;5097682;28;20237;-73
2021/03/15 12:44:07;;;;;;;8.77;4.20;;;;;;;;;;5097717;28;20205;-73
2021/03/15 12:46:35;;;;;;;7.70;3.50;;;;;;;;;;5102327;28;20201;-71
2021/03/15 12:49:03;;;;;;;8.83;3.70;;;;;;;;;;5110612;28;20243;-71
2021/03/15 12:51:30;;;;;;;19.37;9.37;;;;;;;;;;5110532;28;20288;-70
2021/03/15 12:53:57;;;;;;;42.67;15.40;;;;;;;;;;5097255;28;20209;-69
2021/03/15 12:56:24;;;;;;;22.57;9.77;;;;;;;;;;5097546;28;20228;-69
2021/03/15 12:58:51;;;;;;;7.40;4.40;;;;;;;;;;5112478;28;20193;-71
2021/03/15 13:01:18;;;;;;;6.53;3.23;;;;;;;;;;5113081;28;20243;-71
2021/03/15 13:03:46;;;;;;;5.50;3.00;;;;;;;;;;5113195;28;20204;-72
2021/03/15 13:06:15;;;;;;;5.27;3.00;;;;;;;;;;5116476;28;20300;-72
2021/03/15 13:08:42;;;;;;;5.10;2.67;;;;;;;;;;5119864;28;20235;-72
2021/03/15 13:11:10;;;;;;;4.30;2.57;;;;;;;;;;5117293;28;20547;-72
2021/03/15 13:13:37;;;;;;;4.77;3.20;;;;;;;;;;5117101;28;20206;-71
2021/03/15 13:16:24;;;;;;;4.47;2.87;;;;;;;;;;5118932;28;20239;-72
2021/03/15 13:18:52;;;;;;;6.80;2.70;;;;;;;;;;5118410;28;20652;-72
2021/03/15 13:21:20;;;;;;;3.50;2.70;;;;;;;;;;5114565;28;20208;-72
2021/03/15 13:23:47;;;;;;;2.80;2.23;;;;;;;;;;5112271;28;20236;-72
2021/03/15 13:26:14;;;;;;;4.23;2.43;;;;;;;;;;5110076;28;20221;-72
2021/03/15 13:28:41;;;;;;;3.93;2.60;;;;;;;;;;5112327;28;20343;-73
2021/03/15 13:31:09;;;;;;;4.00;2.73;;;;;;;;;;5114209;28;20290;-72
2021/03/15 13:33:36;;;;;;;4.80;2.30;;;;;;;;;;5116999;28;20619;-72
2021/03/15 13:36:05;;;;;;;3.10;1.90;;;;;;;;;;5117235;28;20826;-72
2021/03/15 13:38:32;;;;;;;5.20;2.43;;;;;;;;;;5111403;28;20602;-72
2021/03/15 13:41:00;;;;;;;3.53;1.80;;;;;;;;;;5112673;28;20728;-72
2021/03/15 13:43:28;;;;;;;2.77;2.07;;;;;;;;;;5112630;28;20204;-71
2021/03/15 13:45:55;;;;;;;2.57;1.80;;;;;;;;;;5109547;28;20308;-70
2021/03/15 13:48:22;;;;;;;1.77;1.67;;;;;;;;;;5110622;28;20202;-69
2021/03/15 13:50:50;;;;;;;3.77;1.93;;;;;;;;;;5100642;28;20217;-70
2021/03/15 13:53:18;;;;;;;2.23;1.97;;;;;;;;;;5100669;28;20271;-69
2021/03/15 13:55:45;;;;;;;3.17;2.00;;;;;;;;;;5100690;28;20314;-69
2021/03/15 13:58:12;;;;;;;6.40;2.20;;;;;;;;;;5100740;28;20233;-69
2021/03/15 14:00:39;;;;;;;4.80;2.67;;;;;;;;;;5103943;28;20240;-69
2021/03/15 14:03:07;;;;;;;4.13;2.00;;;;;;;;;;5100786;28;20284;-70
2021/03/15 14:05:34;;;;;;;3.27;2.00;;;;;;;;;;5105086;28;20246;-70
2021/03/15 14:08:02;;;;;;;4.57;2.17;;;;;;;;;;5119361;28;20606;-69
2021/03/15 14:10:30;;;;;;;3.83;2.23;;;;;;;;;;5110780;28;20229;-69
2021/03/15 14:12:57;;;;;;;5.47;2.33;;;;;;;;;;5113167;28;20233;-68
2021/03/15 14:15:24;;;;;;;4.23;2.60;;;;;;;;;;5110755;28;20304;-69
2021/03/15 14:17:51;;;;;;;6.00;2.60;;;;;;;;;;5111868;28;20307;-69
2021/03/15 14:20:19;;;;;;;3.73;1.87;;;;;;;;;;5110603;28;20284;-69
2021/03/15 14:22:46;;;;;;;5.90;2.30;;;;;;;;;;5110654;28;20233;-69
2021/03/15 14:25:13;;;;;;;3.77;2.10;;;;;;;;;;5111464;28;20264;-69
2021/03/15 14:27:41;;;;;;;5.17;2.90;;;;;;;;;;5112189;28;20626;-69
2021/03/15 14:30:09;;;;;;;7.17;3.33;;;;;;;;;;5111536;28;20236;-69
2021/03/15 14:32:36;;;;;;;3.30;1.80;;;;;;;;;;5113029;28;20197;-69
2021/03/15 14:35:05;;;;;;;7.37;1.83;;;;;;;;;;5113771;28;20225;-69
2021/03/15 14:37:32;;;;;;;6.37;1.70;;;;;;;;;;5110997;28;20315;-69
2021/03/15 14:39:59;;;;;;;2.07;1.50;;;;;;;;;;5113257;28;20234;-69
2021/03/15 14:42:26;;;;;;;4.23;1.77;;;;;;;;;;5111168;28;20224;-69
2021/03/15 14:44:54;;;;;;;2.57;1.50;;;;;;;;;;5111991;28;20256;-70
2021/03/15 14:47:31;;;;;;;2.17;1.50;;;;;;;;;;5115168;28;20280;-69
2021/03/15 14:50:00;;;;;;;4.20;1.23;;;;;;;;;;5117917;28;20203;-69
2021/03/15 14:52:31;;;;;;;4.23;1.60;;;;;;;;;;5116918;28;20628;-69
2021/03/15 14:54:58;;;;;;;1.93;1.30;;;;;;;;;;5114031;28;20217;-69
2021/03/15 14:57:25;;;;;;;3.73;1.50;;;;;;;;;;5111185;28;20253;-69